createdAt,value
2019-02-19T00:10:06.910Z,217.53
2019-02-19T00:25:12.013Z,261.43
2019-02-19T00:40:29.666Z,282.87
2019-02-19T00:55:46.546Z,203.70
2019-02-19T01:10:51.704Z,528.77
2019-02-19T01:25:56.869Z,260.23
2019-02-19T01:41:14.307Z,245.47
2019-02-19T01:56:19.172Z,301.57
2019-02-19T02:11:43.668Z,239.40
2019-02-19T02:26:49.507Z,345.63
2019-02-19T02:42:06.682Z,232.67
2019-02-19T02:57:11.590Z,242.33
2019-02-19T03:12:36.764Z,257.60
2019-02-19T03:27:42.374Z,232.40
2019-02-19T03:42:47.187Z,189.60
2019-02-19T03:58:04.509Z,260.90
2019-02-19T04:13:09.754Z,388.60
2019-02-19T04:28:15.136Z,330.50
2019-02-19T04:43:20.117Z,303.40
2019-02-19T04:58:24.959Z,216.20
2019-02-19T05:13:30.156Z,324.40
2019-02-19T05:28:47.718Z,295.67
2019-02-19T05:44:05.019Z,242.43
2019-02-19T05:59:09.944Z,303.37
2019-02-19T06:14:15.077Z,233.77
2019-02-19T06:29:20.544Z,273.80
2019-02-19T06:44:25.416Z,332.03
2019-02-19T06:59:30.546Z,370.53
2019-02-19T07:14:35.804Z,418.77
2019-02-19T07:29:44.515Z,408.97
2019-02-19T07:44:49.939Z,504.27
2019-02-19T07:59:55.133Z,692.03
2019-02-19T08:15:00.301Z,602.67
2019-02-19T08:30:08.330Z,656.87
2019-02-19T08:45:13.433Z,287.93
2019-02-19T09:00:30.880Z,99.20
2019-02-19T09:15:35.660Z,60.53
2019-02-19T09:30:40.696Z,57.57
2019-02-19T09:45:45.909Z,50.83
2019-02-19T10:00:50.581Z,42.90
2019-02-19T10:15:55.273Z,45.00
2019-02-19T10:31:03.619Z,39.93
2019-02-19T10:46:08.579Z,38.33
2019-02-19T11:01:13.759Z,36.47
2019-02-19T11:16:18.586Z,36.73
2019-02-19T11:31:23.897Z,34.80
2019-02-19T11:46:41.241Z,42.37
2019-02-19T12:01:46.860Z,32.37
2019-02-19T12:16:52.069Z,32.27
2019-02-19T12:31:57.194Z,34.17
2019-02-19T12:47:02.272Z,38.57
2019-02-19T13:02:07.542Z,40.70
2019-02-19T13:17:12.690Z,32.77
2019-02-19T13:32:17.587Z,36.40
2019-02-19T13:47:22.335Z,36.03
2019-02-19T14:02:27.259Z,55.53
2019-02-19T14:17:35.915Z,48.63
2019-02-19T14:32:42.457Z,51.77
2019-02-19T14:47:49.574Z,52.70
2019-02-19T15:02:56.694Z,52.20
2019-02-19T15:18:03.475Z,58.87
2019-02-19T15:33:12.214Z,54.97
2019-02-19T15:48:18.998Z,50.27
2019-02-19T16:03:25.586Z,40.83
2019-02-19T16:18:32.412Z,33.53
2019-02-19T16:33:39.094Z,36.23
2019-02-19T16:48:45.898Z,33.63
2019-02-19T17:03:57.004Z,28.10
2019-02-19T17:19:04.141Z,25.90
2019-02-19T17:34:24.592Z,27.83
2019-02-19T17:49:32.218Z,29.53
2019-02-19T18:04:38.790Z,45.70
2019-02-19T18:19:46.657Z,43.77
2019-02-19T18:34:51.466Z,52.27
2019-02-19T18:50:01.383Z,50.20
2019-02-19T19:05:26.956Z,50.87
2019-02-19T19:20:46.848Z,50.47
2019-02-19T19:35:55.818Z,48.67
2019-02-19T19:51:00.531Z,50.20
2019-02-19T20:06:16.213Z,53.60
2019-02-19T20:21:27.022Z,48.70
2019-02-19T20:36:44.820Z,50.90
2019-02-19T20:51:53.809Z,43.90
2019-02-19T21:07:06.223Z,42.80
2019-02-19T21:22:13.816Z,38.10
2019-02-19T21:37:40.307Z,42.10
2019-02-19T21:52:58.307Z,30.93
2019-02-19T22:08:03.464Z,34.73
2019-02-19T22:23:08.945Z,34.30
2019-02-19T22:38:13.718Z,30.90
2019-02-19T22:53:20.233Z,29.40
2019-02-19T23:08:25.313Z,35.10
2019-02-19T23:23:30.647Z,21.63
2019-02-19T23:38:35.747Z,18.93
2019-02-19T23:53:40.661Z,12.03
